This is the latest recevied weather packets stored in our database for station/object KD2SIG. If no packets are shown the sender has not sent any weather packets the latest 10 day(s).
| Time | Temp. | Humidity | Pressure | Rain* | Wind** | Luminosity | Snow |
|---|---|---|---|---|---|---|---|
| 1777635056 | 4.44° C | 96% | 1014.1 hPa | 0 mm | - | 50 W/m² | - |
| 1777634752 | 3.89° C | 96% | 1014 hPa | 0 mm | - | 44 W/m² | - |
| 1777634449 | 3.33° C | 97% | 1014.2 hPa | 0 mm | - | 112 W/m² | - |
| 1777634146 | 2.22° C | 96% | 1013.8 hPa | 0 mm | - | 58 W/m² | - |
| 1777633842 | 1.67° C | 96% | 1014 hPa | 0 mm | - | 49 W/m² | - |
| 1777633540 | 1.67° C | 96% | 1013.9 hPa | 0 mm | - | 39 W/m² | - |
| 1777633238 | 1.67° C | 96% | 1013.9 hPa | 0 mm | - | 37 W/m² | - |
| 1777632935 | 1.67° C | 97% | 1014.1 hPa | 0 mm | - | 37 W/m² | - |
| 1777632631 | 1.67° C | 96% | 1014 hPa | 0 mm | - | 35 W/m² | - |
| 1777632328 | 1.11° C | 96% | 1013.8 hPa | 0 mm | - | 35 W/m² | - |
| 1777632025 | 0.56° C | 96% | 1013.7 hPa | 0 mm | - | 32 W/m² | - |
| 1777631723 | 0° C | 96% | 1013.6 hPa | 0 mm | - | 23 W/m² | - |
| 1777631420 | 0° C | 96% | 1013.8 hPa | 0 mm | - | 21 W/m² | - |
| 1777631117 | -0.56° C | 96% | 1013.7 hPa | 0 mm | - | 18 W/m² | - |
| 1777630815 | -0.56° C | 96% | 1013.8 hPa | 0 mm | - | 13 W/m² | - |
| 1777630510 | -0.56° C | 96% | 1013.7 hPa | 0 mm | - | 10 W/m² | - |
| 1777630207 | -0.56° C | 96% | 1013.6 hPa | 0 mm | - | 7 W/m² | - |
| 1777629905 | -0.56° C | 96% | 1013.7 hPa | 0 mm | - | 5 W/m² | - |
| 1777629602 | -1.11° C | 96% | 1013.8 hPa | 0 mm | - | 3 W/m² | - |
| 1777629298 | -1.11° C | 96% | 1013.7 hPa | 0 mm | - | 1 W/m² | - |
| 1777628994 | -0.56° C | 96% | 1013.6 hPa | 0 mm | - | 0 W/m² | - |
| 1777628691 | -0.56° C | 96% | 1013.7 hPa | 0 mm | - | 0 W/m² | - |
| 1777628387 | -0.56° C | 96% | 1013.6 hPa | 0 mm | - | 0 W/m² | - |
| 1777628083 | -0.56° C | 96% | 1013.5 hPa | 0 mm | - | 0 W/m² | - |
| 1777627778 | -0.56° C | 96% | 1013.4 hPa | 0 mm | - | 0 W/m² | - |
* Rain latest hour (hover to see other rain measurements)
** Current wind speed in m/s (hover to see current wind gust speed)